Time;durP1;ratioP1;P1;durP2;ratioP2;P2;SDS_P1;SDS_P2;PMS_P1;PMS_P2;Temp;Humidity;BMP_temperature;BMP_pressure;BME280_temperature;BME280_humidity;BME280_pressure;Samples;Min_cycle;Max_cycle;Signal;HPM_P1;HPM_P2
2022/10/27 00:01:35;;;;;;;;;;;;;;;14.17;100.00;100745.97;4439920;32;36008;-83
2022/10/27 00:04:22;;;;;;;;;;;;;;;14.21;100.00;100746.19;4436558;32;35651;-83
2022/10/27 00:07:07;;;;;;;;;;;;;;;14.10;100.00;100748.34;4436513;32;34550;-81
2022/10/27 00:09:54;;;;;;;;;;;;;;;13.97;100.00;100751.91;4442761;32;34491;-83
2022/10/27 00:12:40;;;;;;;;;;;;;;;14.24;100.00;100753.84;4441060;32;35232;-83
2022/10/27 00:15:26;;;;;;;;;;;;;;;13.93;100.00;100752.53;4439122;32;34360;-81
2022/10/27 00:18:12;;;;;;;;;;;;;;;13.75;100.00;100756.22;4448542;32;34016;-83
2022/10/27 00:21:03;;;;;;;;;;;;;;;14.13;100.00;100758.75;4438151;32;35723;-83
2022/10/27 00:23:52;;;;;;;;;;;;;;;14.09;100.00;100763.25;4435776;32;35266;-82
2022/10/27 00:26:38;;;;;;;;;;;;;;;14.05;100.00;100763.03;4449889;32;34874;-83
2022/10/27 00:29:26;;;;;;;;;;;;;;;13.83;100.00;100757.41;4449102;32;34726;-82
2022/10/27 00:32:14;;;;;;;;;;;;;;;14.03;100.00;100757.03;4450009;32;35902;-83
2022/10/27 00:35:00;;;;;;;;;;;;;;;13.58;100.00;100756.00;4432589;32;34831;-82
2022/10/27 00:37:46;;;;;;;;;;;;;;;13.83;100.00;100758.25;4447207;32;34854;-83
2022/10/27 00:40:36;;;;;;;;;;;;;;;13.11;100.00;100761.44;4450488;32;34119;-82
2022/10/27 00:43:27;;;;;;;;;;;;;;;12.52;100.00;100763.72;4437618;32;35836;-82
2022/10/27 00:46:23;;;;;;;;;;;;;;;13.29;100.00;100768.06;4432230;32;36135;-82
2022/10/27 00:49:11;;;;;;;;;;;;;;;13.76;100.00;100770.78;4434283;32;35687;-82
2022/10/27 00:51:59;;;;;;;;;;;;;;;13.07;100.00;100776.13;4449919;32;33824;-83
2022/10/27 00:54:45;;;;;;;;;;;;;;;13.39;100.00;100780.81;4450325;32;35407;-82
2022/10/27 00:57:31;;;;;;;;;;;;;;;13.48;100.00;100782.56;4426773;32;35105;-83
2022/10/27 01:00:18;;;;;;;;;;;;;;;13.81;100.00;100777.03;4400933;32;928969;-82
2022/10/27 01:03:04;;;;;;;;;;;;;;;13.10;100.00;100783.75;4436264;32;35783;-82
2022/10/27 01:05:51;;;;;;;;;;;;;;;12.93;100.00;100779.63;4435118;32;34672;-82
2022/10/27 01:08:37;;;;;;;;;;;;;;;12.16;100.00;100788.09;4438649;32;35244;-82
2022/10/27 01:11:24;;;;;;;;;;;;;;;12.53;100.00;100781.84;4429752;32;35183;-82
2022/10/27 01:14:10;;;;;;;;;;;;;;;12.70;100.00;100786.03;4450138;32;34695;-82
2022/10/27 01:17:00;;;;;;;;;;;;;;;13.45;100.00;100791.44;4437741;32;34947;-82
2022/10/27 01:19:51;;;;;;;;;;;;;;;13.75;100.00;100793.97;4437355;32;34895;-82
2022/10/27 01:22:40;;;;;;;;;;;;;;;13.62;100.00;100788.09;4447366;32;34819;-82
2022/10/27 01:25:35;;;;;;;;;;;;;;;13.70;100.00;100792.91;4437821;32;34273;-83
2022/10/27 01:28:21;;;;;;;;;;;;;;;13.84;100.00;100803.97;4449682;32;34986;-82
2022/10/27 01:31:12;;;;;;;;;;;;;;;13.98;100.00;100798.47;4436552;32;35159;-82
2022/10/27 01:33:58;;;;;;;;;;;;;;;13.27;100.00;100800.56;4450587;32;34871;-82
2022/10/27 01:36:50;;;;;;;;;;;;;;;12.34;100.00;100801.06;4448866;32;33825;-82
2022/10/27 01:39:46;;;;;;;;;;;;;;;12.86;100.00;100800.34;4437500;32;34635;-82
2022/10/27 01:42:32;;;;;;;;;;;;;;;12.85;100.00;100793.22;4445700;32;35198;-82
2022/10/27 01:45:21;;;;;;;;;;;;;;;13.31;100.00;100801.59;4448925;32;34940;-82
2022/10/27 01:48:07;;;;;;;;;;;;;;;13.30;100.00;100799.97;4435807;32;34145;-82
2022/10/27 01:50:53;;;;;;;;;;;;;;;12.99;100.00;100794.91;4440399;32;35043;-82
2022/10/27 01:53:47;;;;;;;;;;;;;;;12.78;100.00;100799.09;4451031;32;36099;-82
2022/10/27 01:56:52;;;;;;;;;;;;;;;13.16;100.00;100799.06;4438512;32;35135;-82
2022/10/27 01:59:38;;;;;;;;;;;;;;;13.05;100.00;100798.41;4450918;32;34086;-82
2022/10/27 02:02:43;;;;;;;;;;;;;;;12.85;100.00;100802.28;4450472;32;35472;-82
2022/10/27 02:05:43;;;;;;;;;;;;;;;13.16;100.00;100799.06;4451781;32;36219;-82
2022/10/27 02:08:36;;;;;;;;;;;;;;;13.47;100.00;100810.41;4439044;32;35606;-82
2022/10/27 02:11:23;;;;;;;;;;;;;;;13.80;100.00;100802.09;4451110;32;34444;-82
2022/10/27 02:14:08;;;;;;;;;;;;;;;13.80;100.00;100813.13;4440070;32;34993;-82
2022/10/27 02:16:57;;;;;;;;;;;;;;;12.88;100.00;100809.94;4440041;32;36279;-82
2022/10/27 02:19:43;;;;;;;;;;;;;;;12.76;100.00;100807.66;4451697;32;34889;-82
2022/10/27 02:22:29;;;;;;;;;;;;;;;13.30;100.00;100808.22;4438103;32;34055;-82
2022/10/27 02:25:15;;;;;;;;;;;;;;;13.81;100.00;100804.56;4431892;32;34726;-82
2022/10/27 02:28:03;;;;;;;;;;;;;;;13.88;100.00;100799.47;4437081;32;36185;-83
2022/10/27 02:30:48;;;;;;;;;;;;;;;14.03;100.00;100805.81;4439033;32;34897;-82
2022/10/27 02:33:35;;;;;;;;;;;;;;;14.00;100.00;100800.91;4434937;32;33733;-82
2022/10/27 02:36:21;;;;;;;;;;;;;;;13.81;100.00;100804.56;4448726;32;34688;-82
2022/10/27 02:39:07;;;;;;;;;;;;;;;13.39;100.00;100809.16;4436597;32;35272;-82
2022/10/27 02:41:53;;;;;;;;;;;;;;;13.02;100.00;100810.81;4440410;32;35798;-82
2022/10/27 02:44:39;;;;;;;;;;;;;;;12.75;100.00;100814.28;4451546;32;34164;-82
2022/10/27 02:47:25;;;;;;;;;;;;;;;11.26;100.00;100809.56;4452138;32;34970;-81
2022/10/27 02:50:12;;;;;;;;;;;;;;;10.88;100.00;100807.69;4448956;32;35221;-81
2022/10/27 02:52:59;;;;;;;;;;;;;;;10.59;100.00;100816.63;4452165;32;35540;-81
2022/10/27 02:55:46;;;;;;;;;;;;;;;11.68;100.00;100819.06;4452143;32;34317;-81
2022/10/27 02:58:32;;;;;;;;;;;;;;;11.26;100.00;100826.03;4435388;32;34839;-82
2022/10/27 03:01:19;;;;;;;;;;;;;;;11.77;100.00;100804.72;4451398;32;34876;-82
2022/10/27 03:04:07;;;;;;;;;;;;;;;12.38;100.00;100810.37;4449749;32;34944;-80
2022/10/27 03:06:54;;;;;;;;;;;;;;;11.89;100.00;100811.47;4452145;32;35063;-82
2022/10/27 03:09:41;;;;;;;;;;;;;;;12.46;100.00;100808.88;4452108;32;35969;-82
2022/10/27 03:12:27;;;;;;;;;;;;;;;12.62;100.00;100814.19;4434496;32;35203;-81
2022/10/27 03:15:13;;;;;;;;;;;;;;;13.02;100.00;100813.59;4451316;32;35530;-82
2022/10/27 03:18:00;;;;;;;;;;;;;;;13.39;100.00;100813.88;4440677;32;34993;-81
2022/10/27 03:20:46;;;;;;;;;;;;;;;13.35;100.00;100819.16;4440810;32;35002;-82
2022/10/27 03:23:36;;;;;;;;;;;;;;;12.75;100.00;100827.19;4433070;32;34952;-82
2022/10/27 03:26:22;;;;;;;;;;;;;;;13.36;100.00;100825.47;4452344;32;35683;-82
2022/10/27 03:29:09;;;;;;;;;;;;;;;13.32;100.00;100832.69;4451491;32;35063;-82
2022/10/27 03:31:55;;;;;;;;;;;;;;;13.58;100.00;100833.91;4452321;32;34915;-82
2022/10/27 03:34:43;;;;;;;;;;;;;;;13.90;100.00;100832.22;4430454;32;34208;-82
2022/10/27 03:37:29;;;;;;;;;;;;;;;13.53;100.00;100830.44;4449671;32;35729;-82
2022/10/27 03:40:15;;;;;;;;;;;;;;;12.54;100.00;100838.47;4451364;32;34094;-82
2022/10/27 03:43:02;;;;;;;;;;;;;;;13.57;100.00;100826.75;4432534;32;34874;-82
2022/10/27 03:45:51;;;;;;;;;;;;;;;12.29;100.00;100836.84;4445251;32;35191;-82
2022/10/27 03:48:43;;;;;;;;;;;;;;;12.03;100.00;100843.75;4440901;32;35900;-83
2022/10/27 03:51:29;;;;;;;;;;;;;;;12.91;100.00;100834.09;4439190;32;34209;-82
2022/10/27 03:54:15;;;;;;;;;;;;;;;13.45;100.00;100835.50;4440440;32;35804;-83
2022/10/27 03:57:01;;;;;;;;;;;;;;;13.52;100.00;100834.28;4448451;32;35361;-82
2022/10/27 03:59:54;;;;;;;;;;;;;;;13.48;100.00;100843.16;4436549;32;34543;-82
2022/10/27 04:02:40;;;;;;;;;;;;;;;13.35;100.00;100838.44;4439207;32;34134;-82
2022/10/27 04:05:27;;;;;;;;;;;;;;;13.80;100.00;100840.66;4447669;32;34882;-81
2022/10/27 04:08:15;;;;;;;;;;;;;;;13.00;100.00;100845.25;4450304;32;35128;-81
2022/10/27 04:11:09;;;;;;;;;;;;;;;13.34;100.00;100841.47;4451245;32;34857;-81
2022/10/27 04:13:56;;;;;;;;;;;;;;;13.83;100.00;100840.91;4448987;32;34034;-81
2022/10/27 04:16:50;;;;;;;;;;;;;;;13.89;100.00;100847.94;4452021;32;35936;-81
2022/10/27 04:19:35;;;;;;;;;;;;;;;13.53;100.00;100846.94;4429058;32;35231;-81
2022/10/27 04:22:22;;;;;;;;;;;;;;;13.85;100.00;100849.66;4447758;32;34836;-81
2022/10/27 04:25:09;;;;;;;;;;;;;;;13.86;100.00;100851.31;4423953;32;34928;-81
2022/10/27 04:28:04;;;;;;;;;;;;;;;14.01;100.00;100850.22;4450317;32;36010;-81
2022/10/27 04:30:51;;;;;;;;;;;;;;;13.93;100.00;100859.19;4437423;32;35775;-81
2022/10/27 04:33:39;;;;;;;;;;;;;;;13.76;100.00;100857.00;4436071;32;35568;-80
2022/10/27 04:36:25;;;;;;;;;;;;;;;13.92;100.00;100861.13;4434209;32;34015;-81
2022/10/27 04:39:13;;;;;;;;;;;;;;;14.02;100.00;100864.81;4448487;32;33808;-81
2022/10/27 04:42:00;;;;;;;;;;;;;;;13.80;100.00;100868.22;4449819;32;36178;-81
2022/10/27 04:44:49;;;;;;;;;;;;;;;13.71;100.00;100865.34;4445094;32;33923;-81
2022/10/27 04:47:35;;;;;;;;;;;;;;;13.85;100.00;100871.69;4446620;32;34232;-81
2022/10/27 04:50:26;;;;;;;;;;;;;;;13.95;100.00;100871.53;4438553;32;34982;-80
2022/10/27 04:53:13;;;;;;;;;;;;;;;14.33;100.00;100878.81;4438619;32;35252;-80
2022/10/27 04:56:04;;;;;;;;;;;;;;;14.21;100.00;100873.81;4446951;32;34870;-81
2022/10/27 04:58:52;;;;;;;;;;;;;;;14.15;100.00;100872.28;4447831;32;33988;-81
2022/10/27 05:01:39;;;;;;;;;;;;;;;13.97;100.00;100876.72;4433148;32;36416;-81
2022/10/27 05:04:27;;;;;;;;;;;;;;;13.77;100.00;100886.16;4450282;32;35220;-81
2022/10/27 05:07:15;;;;;;;;;;;;;;;13.68;100.00;100885.22;4434849;32;34966;-81
2022/10/27 05:10:02;;;;;;;;;;;;;;;14.14;100.00;100892.66;4448156;32;34097;-81
2022/10/27 05:12:49;;;;;;;;;;;;;;;14.30;100.00;100894.03;4437375;32;34924;-81
2022/10/27 05:15:37;;;;;;;;;;;;;;;14.31;100.00;100897.59;4448879;32;35266;-81
2022/10/27 05:18:23;;;;;;;;;;;;;;;14.30;100.00;100895.97;4449778;32;34853;-81
2022/10/27 05:21:10;;;;;;;;;;;;;;;14.32;100.00;100891.78;4450766;32;34994;-80
2022/10/27 05:23:58;;;;;;;;;;;;;;;14.02;100.00;100903.38;4448966;32;34963;-81
2022/10/27 05:26:46;;;;;;;;;;;;;;;14.11;100.00;100896.03;4451231;32;35912;-81
2022/10/27 05:29:33;;;;;;;;;;;;;;;13.78;100.00;100893.34;4451939;32;34893;-80
2022/10/27 05:32:19;;;;;;;;;;;;;;;14.00;100.00;100900.09;4451657;32;34155;-81
2022/10/27 05:35:09;;;;;;;;;;;;;;;14.25;100.00;100913.41;4448994;32;35857;-80
2022/10/27 05:37:56;;;;;;;;;;;;;;;14.30;100.00;100910.56;4437262;32;35242;-80
2022/10/27 05:40:43;;;;;;;;;;;;;;;14.43;100.00;100910.88;4443437;32;35064;-81
2022/10/27 05:43:29;;;;;;;;;;;;;;;13.20;100.00;100912.94;4422651;32;35173;-81
2022/10/27 05:46:23;;;;;;;;;;;;;;;13.77;100.00;100919.22;4438766;32;35625;-80
2022/10/27 05:49:10;;;;;;;;;;;;;;;14.06;100.00;100913.50;4427175;32;35202;-81
2022/10/27 05:51:57;;;;;;;;;;;;;;;13.54;100.00;100922.91;4437620;32;35740;-81
2022/10/27 05:54:43;;;;;;;;;;;;;;;13.38;100.00;100928.66;4415876;32;34952;-81
2022/10/27 05:57:31;;;;;;;;;;;;;;;13.78;100.00;100923.62;4426943;32;34898;-81
2022/10/27 06:00:19;;;;;;;;;;;;;;;14.32;100.00;100924.06;4430833;32;34615;-81
2022/10/27 06:03:15;;;;;;;;;;;;;;;14.12;100.00;100926.06;4428346;32;34776;-81
2022/10/27 06:06:03;;;;;;;;;;;;;;;13.97;100.00;100928.25;4414055;32;34209;-81
2022/10/27 06:08:54;;;;;;;;;;;;;;;13.71;100.00;100931.44;4412508;32;35037;-81
2022/10/27 06:11:42;;;;;;;;;;;;;;;14.36;100.00;100936.91;4421674;32;36089;-80
2022/10/27 06:14:29;;;;;;;;;;;;;;;14.31;100.00;100945.28;4420592;32;34585;-81
2022/10/27 06:17:16;;;;;;;;;;;;;;;14.00;100.00;100944.19;4420617;32;33723;-81
2022/10/27 06:20:06;;;;;;;;;;;;;;;14.15;100.00;100946.69;4421759;32;35052;-81
2022/10/27 06:22:54;;;;;;;;;;;;;;;14.27;100.00;100951.72;4427865;32;35212;-81
2022/10/27 06:25:40;;;;;;;;;;;;;;;14.69;100.00;100953.41;4427918;32;34621;-81
2022/10/27 06:28:27;;;;;;;;;;;;;;;14.80;100.00;100954.84;4426113;32;34208;-81
2022/10/27 06:31:13;;;;;;;;;;;;;;;14.30;100.00;100953.88;4423992;32;35933;-81
2022/10/27 06:34:00;;;;;;;;;;;;;;;13.29;100.00;100960.75;4413560;32;34685;-81
2022/10/27 06:36:50;;;;;;;;;;;;;;;13.86;100.00;100960.69;4425562;32;34510;-81
2022/10/27 06:39:41;;;;;;;;;;;;;;;13.54;100.00;100958.72;4424995;32;33976;-81
2022/10/27 06:42:34;;;;;;;;;;;;;;;12.44;100.00;100969.72;4415882;32;35116;-82
2022/10/27 06:45:47;;;;;;;;;;;;;;;12.67;100.00;100973.59;4425935;32;35018;-81
2022/10/27 06:48:33;;;;;;;;;;;;;;;12.26;100.00;100974.81;4429448;32;33206;-81
2022/10/27 06:51:21;;;;;;;;;;;;;;;11.82;100.00;100969.44;4423270;32;33897;-82
2022/10/27 06:54:08;;;;;;;;;;;;;;;12.43;100.00;100979.06;4425612;32;34793;-82
2022/10/27 06:56:55;;;;;;;;;;;;;;;12.83;100.00;100972.28;4426050;32;35368;-83
2022/10/27 06:59:44;;;;;;;;;;;;;;;13.17;100.00;100977.62;4424927;32;34989;-82
2022/10/27 07:02:34;;;;;;;;;;;;;;;13.50;100.00;100981.34;4422565;32;32012;-81
2022/10/27 07:05:24;;;;;;;;;;;;;;;12.54;100.00;100984.16;4439503;32;35022;-82
2022/10/27 07:08:11;;;;;;;;;;;;;;;12.34;100.00;100984.38;4429189;32;35250;-82
2022/10/27 07:10:58;;;;;;;;;;;;;;;12.98;100.00;100985.87;4431459;32;34891;-81
2022/10/27 07:13:44;;;;;;;;;;;;;;;12.57;100.00;101000.06;4421735;32;33880;-81
2022/10/27 07:16:30;;;;;;;;;;;;;;;12.33;100.00;100997.31;4431357;32;37888;-82
2022/10/27 07:19:20;;;;;;;;;;;;;;;12.97;100.00;101002.66;4439496;32;36139;-81
2022/10/27 07:22:13;;;;;;;;;;;;;;;12.40;100.00;100996.97;4440102;32;34027;-81
2022/10/27 07:25:02;;;;;;;;;;;;;;;13.27;100.00;101010.56;4440590;32;34863;-81
2022/10/27 07:27:52;;;;;;;;;;;;;;;13.45;100.00;101008.94;4437466;32;34782;-81
2022/10/27 07:30:53;;;;;;;;;;;;;;;13.80;100.00;101003.19;4439670;32;34897;-81
2022/10/27 07:33:40;;;;;;;;;;;;;;;14.33;100.00;101008.41;4426760;32;34561;-81
2022/10/27 07:36:26;;;;;;;;;;;;;;;14.39;100.00;101013.50;4451843;32;35080;-81
2022/10/27 07:39:13;;;;;;;;;;;;;;;14.58;100.00;101016.25;4449165;32;35046;-81
2022/10/27 07:42:00;;;;;;;;;;;;;;;15.16;100.00;101030.56;4446954;32;34184;-81
2022/10/27 07:44:50;;;;;;;;;;;;;;;15.21;100.00;101030.47;4427435;32;36300;-83
2022/10/27 07:47:37;;;;;;;;;;;;;;;14.46;100.00;101034.34;4450103;32;34223;-82
2022/10/27 07:50:26;;;;;;;;;;;;;;;14.85;100.00;101042.22;4439143;32;35061;-82
2022/10/27 07:53:15;;;;;;;;;;;;;;;15.32;100.00;101044.88;4449570;32;36100;-82
2022/10/27 07:56:15;;;;;;;;;;;;;;;14.97;100.00;101039.78;4439435;32;34510;-82
2022/10/27 07:59:01;;;;;;;;;;;;;;;15.06;100.00;101053.69;4450744;32;34073;-82
2022/10/27 08:01:48;;;;;;;;;;;;;;;14.77;100.00;101057.56;4439521;32;34868;-82
2022/10/27 08:04:36;;;;;;;;;;;;;;;15.06;100.00;101059.19;4450518;32;34966;-81
2022/10/27 08:07:30;;;;;;;;;;;;;;;14.77;100.00;101060.31;4451513;32;33679;-82
2022/10/27 08:10:22;;;;;;;;;;;;;;;15.17;100.00;101062.56;4451395;32;34936;-82
2022/10/27 08:13:09;;;;;;;;;;;;;;;14.75;100.00;101065.31;4450106;32;34370;-81
2022/10/27 08:15:57;;;;;;;;;;;;;;;14.53;100.00;101067.91;4428425;32;36228;-82
2022/10/27 08:18:43;;;;;;;;;;;;;;;13.99;100.00;101074.84;4439231;32;34815;-82
2022/10/27 08:21:30;;;;;;;;;;;;;;;13.92;100.00;101078.78;4438726;32;34963;-82
2022/10/27 08:24:15;;;;;;;;;;;;;;;14.46;100.00;101079.31;4428187;32;35001;-82
2022/10/27 08:27:03;;;;;;;;;;;;;;;14.83;100.00;101078.41;4450517;32;35297;-82
2022/10/27 08:29:51;;;;;;;;;;;;;;;15.25;100.00;101084.78;4450126;32;35855;-81
2022/10/27 08:32:39;;;;;;;;;;;;;;;15.20;100.00;101087.63;4438772;32;34992;-82
2022/10/27 08:35:28;;;;;;;;;;;;;;;15.37;100.00;101091.69;4450586;32;35627;-82
2022/10/27 08:38:15;;;;;;;;;;;;;;;15.83;100.00;101086.03;4428152;32;35224;-82
2022/10/27 08:41:14;;;;;;;;;;;;;;;16.06;100.00;101083.31;4438392;32;34901;-82
2022/10/27 08:44:07;;;;;;;;;;;;;;;15.62;100.00;101085.63;4450539;32;34152;-82
2022/10/27 08:47:02;;;;;;;;;;;;;;;14.84;100.00;101091.06;4450898;32;34545;-82
2022/10/27 08:49:50;;;;;;;;;;;;;;;15.80;100.00;101083.09;4450048;32;35814;-82
2022/10/27 08:52:46;;;;;;;;;;;;;;;15.98;100.00;101084.87;4439078;32;35652;-82
2022/10/27 08:55:48;;;;;;;;;;;;;;;16.09;100.00;101085.44;4437551;32;35060;-82
2022/10/27 08:58:38;;;;;;;;;;;;;;;15.89;100.00;101081.22;4450144;32;35060;-82
2022/10/27 09:01:42;;;;;;;;;;;;;;;15.84;100.00;101079.38;4439959;32;35320;-82
2022/10/27 09:04:47;;;;;;;;;;;;;;;15.66;100.00;101083.91;4431121;32;35123;-82
2022/10/27 09:07:48;;;;;;;;;;;;;;;16.04;100.00;101085.56;4425233;32;33562;-82
2022/10/27 09:10:41;;;;;;;;;;;;;;;15.52;100.00;101089.44;4429760;32;35808;-82
2022/10/27 09:13:44;;;;;;;;;;;;;;;14.71;100.00;101089.09;4430594;32;35174;-82
2022/10/27 09:16:36;;;;;;;;;;;;;;;15.37;100.00;101084.25;4427622;32;34823;-82
2022/10/27 09:19:33;;;;;;;;;;;;;;;14.16;100.00;101078.69;4429253;32;34046;-82
2022/10/27 09:22:19;;;;;;;;;;;;;;;14.31;100.00;101088.63;4419529;32;35358;-82
2022/10/27 09:25:09;;;;;;;;;;;;;;;15.44;100.00;101092.13;4434542;32;34940;-82
2022/10/27 09:27:58;;;;;;;;;;;;;;;14.09;100.00;101083.78;4434304;32;35143;-82
2022/10/27 09:30:45;;;;;;;;;;;;;;;14.01;100.00;101089.12;4428141;32;34230;-82
2022/10/27 09:33:33;;;;;;;;;;;;;;;15.03;100.00;101091.00;4428722;32;35004;-83
2022/10/27 09:36:20;;;;;;;;;;;;;;;14.52;100.00;101082.84;4429342;32;34372;-82
2022/10/27 09:39:08;;;;;;;;;;;;;;;14.76;100.00;101083.50;4417573;32;34891;-81
2022/10/27 09:41:56;;;;;;;;;;;;;;;15.73;100.00;101078.78;4428225;32;34863;-82
2022/10/27 09:44:43;;;;;;;;;;;;;;;15.67;100.00;101081.94;4428155;32;35898;-82
2022/10/27 09:47:37;;;;;;;;;;;;;;;16.15;100.00;101090.53;4426761;32;35804;-81
2022/10/27 09:50:25;;;;;;;;;;;;;;;16.19;100.00;101090.72;4416863;32;34888;-82
2022/10/27 09:53:33;;;;;;;;;;;;;;;15.93;100.00;101084.97;4426902;32;34724;-82
2022/10/27 09:56:26;;;;;;;;;;;;;;;16.10;100.00;101085.13;4436162;32;34561;-83
2022/10/27 09:59:19;;;;;;;;;;;;;;;15.91;100.00;101085.31;4442258;32;35646;-82
2022/10/27 10:02:05;;;;;;;;;;;;;;;16.11;100.00;101089.53;4429803;32;34516;-82
2022/10/27 10:04:53;;;;;;;;;;;;;;;16.40;100.00;101091.06;4431111;32;34463;-82
2022/10/27 10:07:40;;;;;;;;;;;;;;;16.78;100.00;101090.66;4433720;32;35670;-82
2022/10/27 10:10:31;;;;;;;;;;;;;;;16.55;100.00;101082.34;4450461;32;36126;-82
2022/10/27 10:13:18;;;;;;;;;;;;;;;16.71;100.00;101093.06;4434009;32;35528;-83
2022/10/27 10:16:05;;;;;;;;;;;;;;;16.14;100.00;101088.91;4434932;32;34123;-82
2022/10/27 10:19:00;;;;;;;;;;;;;;;15.56;100.00;101095.16;4450920;32;35918;-82
2022/10/27 10:21:57;;;;;;;;;;;;;;;15.01;100.00;101084.13;4451552;32;35323;-82
2022/10/27 10:24:44;;;;;;;;;;;;;;;15.98;100.00;101092.34;4434359;32;35101;-82
2022/10/27 10:27:32;;;;;;;;;;;;;;;14.93;100.00;101093.94;4434321;32;35707;-82
2022/10/27 10:30:19;;;;;;;;;;;;;;;15.35;100.00;101099.50;4432310;32;34892;-82
2022/10/27 10:33:13;;;;;;;;;;;;;;;16.01;100.00;101095.31;4433396;32;36270;-82
2022/10/27 10:36:02;;;;;;;;;;;;;;;16.73;100.00;101091.56;4429565;32;35630;-82
2022/10/27 10:38:55;;;;;;;;;;;;;;;16.12;100.00;101101.41;4426178;32;33801;-82
2022/10/27 10:41:41;;;;;;;;;;;;;;;16.00;100.00;101096.44;4432368;32;35511;-82
2022/10/27 10:44:28;;;;;;;;;;;;;;;15.80;100.00;101094.16;4451528;32;33952;-82
2022/10/27 10:47:25;;;;;;;;;;;;;;;16.23;100.00;101096.47;4450954;32;34411;-82
2022/10/27 10:50:13;;;;;;;;;;;;;;;16.48;100.00;101084.78;4431502;32;34864;-83
2022/10/27 10:53:03;;;;;;;;;;;;;;;16.38;100.00;101082.25;4433161;32;34940;-83
2022/10/27 10:55:51;;;;;;;;;;;;;;;16.44;100.00;101080.16;4432475;32;35160;-82
2022/10/27 10:58:39;;;;;;;;;;;;;;;15.63;100.00;101090.03;4432836;32;34927;-82
2022/10/27 11:01:40;;;;;;;;;;;;;;;16.10;100.00;101089.84;4431831;32;34922;-82
2022/10/27 11:04:29;;;;;;;;;;;;;;;15.41;100.00;101093.53;4449447;32;35052;-82
2022/10/27 11:07:29;;;;;;;;;;;;;;;16.28;100.00;101088.03;4429707;32;35554;-81
2022/10/27 11:10:17;;;;;;;;;;;;;;;16.12;100.00;101091.16;4430312;32;34553;-82
2022/10/27 11:13:10;;;;;;;;;;;;;;;15.90;100.00;101093.91;4449459;32;34178;-83
2022/10/27 11:16:00;;;;;;;;;;;;;;;16.81;100.00;101081.72;4450613;32;34981;-82
2022/10/27 11:18:53;;;;;;;;;;;;;;;16.01;100.00;101084.25;4428128;32;35205;-82
2022/10/27 11:21:41;;;;;;;;;;;;;;;15.83;100.00;101088.81;4435206;32;35136;-82
2022/10/27 11:24:32;;;;;;;;;;;;;;;16.22;100.00;101084.56;4450112;32;33850;-82
2022/10/27 11:30:40;;;;;;;;;;;;;;;16.04;100.00;101083.63;4450391;32;35237;-82
2022/10/27 11:33:39;;;;;;;;;;;;;;;17.27;100.00;101075.72;4424965;32;34884;-82
2022/10/27 11:36:48;;;;;;;;;;;;;;;17.49;99.94;101071.22;4434162;32;33682;-82
2022/10/27 11:39:41;;;;;;;;;;;;;;;16.63;100.00;101073.28;4449348;32;34983;-82
2022/10/27 11:42:35;;;;;;;;;;;;;;;15.78;100.00;101074.28;4450933;32;35282;-82
2022/10/27 11:45:29;;;;;;;;;;;;;;;16.46;100.00;101067.66;4449238;32;34994;-82
2022/10/27 11:48:17;;;;;;;;;;;;;;;16.16;100.00;101063.69;4437026;32;34471;-82
2022/10/27 11:51:05;;;;;;;;;;;;;;;16.33;100.00;101063.00;4450917;32;35826;-82
2022/10/27 11:53:52;;;;;;;;;;;;;;;14.62;100.00;101055.06;4434688;32;36239;-82
2022/10/27 11:59:45;;;;;;;;;;;;;;;15.15;100.00;101060.13;4432969;32;34016;-82
2022/10/27 12:02:40;;;;;;;;;;;;;;;15.63;100.00;101058.84;4435994;32;35788;-82
2022/10/27 12:05:40;;;;;;;;;;;;;;;16.94;100.00;101053.13;4449762;32;35347;-82
2022/10/27 12:08:27;;;;;;;;;;;;;;;17.21;100.00;101051.25;4438700;32;34936;-82
2022/10/27 12:11:28;;;;;;;;;;;;;;;17.60;99.15;101052.34;4444414;32;35128;-82
2022/10/27 12:14:22;;;;;;;;;;;;;;;17.74;99.79;101051.03;4441801;32;34553;-82
2022/10/27 12:17:18;;;;;;;;;;;;;;;18.23;96.43;101039.78;4439005;32;36199;-82
2022/10/27 12:20:06;;;;;;;;;;;;;;;17.87;97.66;101038.22;4427561;32;35124;-82
2022/10/27 12:22:57;;;;;;;;;;;;;;;18.33;94.47;101031.16;4438230;32;34293;-81
2022/10/27 12:25:53;;;;;;;;;;;;;;;18.39;94.27;101032.59;4442649;32;34652;-82
2022/10/27 12:28:40;;;;;;;;;;;;;;;18.76;93.20;101035.78;4443074;32;35809;-82
2022/10/27 12:31:27;;;;;;;;;;;;;;;19.27;88.64;101022.78;4439692;32;34571;-82
2022/10/27 12:34:17;;;;;;;;;;;;;;;18.29;95.21;101021.84;4461185;32;34106;-82
2022/10/27 12:37:21;;;;;;;;;;;;;;;18.97;89.81;101030.28;4434130;32;34884;-82
2022/10/27 12:40:31;;;;;;;;;;;;;;;19.32;87.70;101028.16;4441716;32;35264;-82
2022/10/27 12:43:27;;;;;;;;;;;;;;;18.80;90.62;101019.28;4445710;32;34915;-82
2022/10/27 12:46:21;;;;;;;;;;;;;;;17.80;95.93;101021.22;4438893;32;34810;-81
2022/10/27 12:49:10;;;;;;;;;;;;;;;17.11;99.16;101019.16;4449846;32;35107;-81
2022/10/27 12:52:24;;;;;;;;;;;;;;;17.65;98.35;101018.94;4457705;32;35205;-81
2022/10/27 12:55:26;;;;;;;;;;;;;;;18.25;95.80;101020.88;4439924;32;35753;-82
2022/10/27 12:58:30;;;;;;;;;;;;;;;18.57;94.82;101021.44;4438835;32;34993;-82
2022/10/27 13:01:16;;;;;;;;;;;;;;;19.01;92.08;101019.31;4437396;32;34828;-82
2022/10/27 13:04:03;;;;;;;;;;;;;;;19.12;90.09;101020.56;4453598;32;35258;-81
2022/10/27 13:10:06;;;;;;;;;;;;;;;19.22;89.65;101022.16;4452641;32;34052;-82
2022/10/27 13:13:14;;;;;;;;;;;;;;;19.36;88.53;101019.16;4437779;32;34983;-81
2022/10/27 13:16:12;;;;;;;;;;;;;;;18.83;92.02;101019.41;4437939;32;36111;-82
2022/10/27 13:19:07;;;;;;;;;;;;;;;19.57;87.08;101024.72;4461600;32;33897;-81
2022/10/27 13:21:56;;;;;;;;;;;;;;;19.60;86.87;101029.59;4434246;32;34315;-82
2022/10/27 13:24:53;;;;;;;;;;;;;;;18.79;90.59;101015.69;4434060;32;34956;-81
2022/10/27 13:27:51;;;;;;;;;;;;;;;19.64;86.80;101016.66;4427115;32;33968;-82
2022/10/27 13:30:59;;;;;;;;;;;;;;;19.86;85.29;101015.53;4449153;32;34761;-81
2022/10/27 13:34:03;;;;;;;;;;;;;;;19.74;85.96;101010.72;4464677;32;34119;-82
2022/10/27 13:36:58;;;;;;;;;;;;;;;20.03;85.61;101011.78;4464758;32;33732;-82
2022/10/27 13:39:45;;;;;;;;;;;;;;;20.64;81.02;101010.00;4464490;32;35164;-81
2022/10/27 13:42:32;;;;;;;;;;;;;;;20.77;79.31;101004.44;4433408;32;34456;-82
2022/10/27 13:45:25;;;;;;;;;;;;;;;20.67;80.08;101011.28;4440038;32;34437;-82
2022/10/27 13:48:15;;;;;;;;;;;;;;;20.32;80.61;101021.94;4455121;32;34934;-82
2022/10/27 13:51:21;;;;;;;;;;;;;;;19.92;82.30;101025.28;4452248;32;36143;-81
2022/10/27 13:54:51;;;;;;;;;;;;;;;19.59;85.02;101025.19;4452322;32;35739;-81
2022/10/27 13:58:00;;;;;;;;;;;;;;;19.60;85.27;101033.19;4435185;32;34121;-81
2022/10/27 14:00:50;;;;;;;;;;;;;;;19.55;85.28;101028.66;4464793;32;33841;-82
2022/10/27 14:03:44;;;;;;;;;;;;;;;19.92;84.23;101025.28;4435806;32;35284;-82
2022/10/27 14:09:38;;;;;;;;;;;;;;;20.29;80.36;101023.47;4432847;32;34949;-82
2022/10/27 14:12:25;;;;;;;;;;;;;;;20.16;79.93;101019.03;4432980;32;34926;-81
2022/10/27 14:21:35;;;;;;;;;;;;;;;20.12;78.82;101027.25;4435801;32;33822;-82
2022/10/27 14:24:25;;;;;;;;;;;;;;;19.48;82.58;101033.13;4435048;32;35721;-82
2022/10/27 14:30:12;;;;;;;;;;;;;;;19.61;82.73;101037.63;4426992;32;35545;-82
2022/10/27 14:33:25;;;;;;;;;;;;;;;19.66;81.56;101039.41;4437674;32;35030;-81
2022/10/27 14:36:23;;;;;;;;;;;;;;;19.26;84.37;101029.47;4418853;32;35829;-81
2022/10/27 14:39:24;;;;;;;;;;;;;;;19.42;83.23;101034.47;4440233;32;34753;-82
2022/10/27 14:45:22;;;;;;;;;;;;;;;19.64;81.95;101036.94;4433433;32;34134;-82
2022/10/27 14:48:24;;;;;;;;;;;;;;;19.54;82.71;101034.53;4431861;32;33639;-82
2022/10/27 14:51:17;;;;;;;;;;;;;;;19.48;83.18;101036.72;4426787;32;35295;-82